Time;durP1;ratioP1;P1;durP2;ratioP2;P2;SDS_P1;SDS_P2;PMS_P1;PMS_P2;Temp;Humidity;BMP_temperature;BMP_pressure;BME280_temperature;BME280_humidity;BME280_pressure;Samples;Min_cycle;Max_cycle;Signal;HPM_P1;HPM_P2
2024/01/12 00:00:33;;;;;;;49.65;26.48;;;1.00;80.90;;;;;;5094758;28;20055;-70
2024/01/12 00:02:58;;;;;;;46.80;25.92;;;1.10;80.80;;;;;;5094353;28;20032;-71
2024/01/12 00:05:24;;;;;;;46.30;26.23;;;1.10;80.70;;;;;;5109785;28;20034;-70
2024/01/12 00:07:50;;;;;;;52.15;26.95;;;1.10;80.70;;;;;;5114785;28;20168;-70
2024/01/12 00:10:15;;;;;;;48.70;27.80;;;1.00;80.60;;;;;;5113929;28;20024;-70
2024/01/12 00:12:41;;;;;;;47.75;25.50;;;1.00;80.70;;;;;;5113433;28;20125;-77
2024/01/12 00:15:07;;;;;;;47.42;26.35;;;1.00;81.20;;;;;;5114598;28;20024;-70
2024/01/12 00:17:32;;;;;;;46.05;27.02;;;1.00;81.50;;;;;;5114684;28;20094;-71
2024/01/12 00:19:58;;;;;;;50.22;26.95;;;0.90;81.70;;;;;;5113984;28;20466;-70
2024/01/12 00:22:24;;;;;;;51.60;28.42;;;1.00;81.90;;;;;;5114795;28;20114;-71
2024/01/12 00:24:50;;;;;;;47.80;26.73;;;0.90;81.80;;;;;;5114142;28;20356;-71
2024/01/12 00:27:15;;;;;;;51.15;26.42;;;1.00;81.90;;;;;;5114685;28;20028;-71
2024/01/12 00:29:41;;;;;;;43.08;25.38;;;1.00;81.80;;;;;;5114319;28;20024;-70
2024/01/12 00:32:07;;;;;;;46.75;25.02;;;1.00;81.60;;;;;;5114064;28;20065;-70
2024/01/12 00:34:32;;;;;;;46.08;24.90;;;1.00;81.20;;;;;;5114460;28;20079;-70
2024/01/12 00:36:59;;;;;;;46.55;24.95;;;1.00;80.60;;;;;;5114402;28;20028;-71
2024/01/12 00:39:24;;;;;;;45.83;24.88;;;1.00;80.50;;;;;;5114572;28;20027;-70
2024/01/12 00:41:50;;;;;;;48.92;25.40;;;1.00;80.80;;;;;;5112673;28;20080;-70
2024/01/12 00:44:18;;;;;;;47.88;24.73;;;1.00;80.90;;;;;;5114206;28;20080;-70
2024/01/12 00:46:44;;;;;;;45.85;26.00;;;1.00;80.80;;;;;;5114425;28;20559;-70
2024/01/12 00:49:10;;;;;;;47.78;25.95;;;1.00;80.80;;;;;;5114645;28;20028;-70
2024/01/12 00:51:36;;;;;;;44.60;25.38;;;1.00;80.90;;;;;;5113402;28;20034;-72
2024/01/12 00:54:02;;;;;;;46.08;23.73;;;1.00;80.90;;;;;;5091626;28;20028;-70
2024/01/12 00:56:28;;;;;;;50.58;25.85;;;1.10;81.00;;;;;;5093704;28;20032;-70
2024/01/12 00:58:53;;;;;;;46.03;25.15;;;1.10;80.90;;;;;;5092934;28;20055;-70
2024/01/12 01:01:19;;;;;;;45.05;24.92;;;1.10;80.80;;;;;;5093238;28;20027;-70
2024/01/12 01:03:45;;;;;;;51.33;25.08;;;1.10;80.70;;;;;;5093152;28;20357;-70
2024/01/12 01:06:10;;;;;;;44.45;25.00;;;1.10;80.60;;;;;;5093527;28;20093;-73
2024/01/12 01:08:36;;;;;;;49.40;26.65;;;1.10;80.70;;;;;;5093528;28;20437;-69
2024/01/12 01:11:02;;;;;;;49.20;26.73;;;1.00;80.80;;;;;;5091883;28;20055;-70
2024/01/12 01:13:28;;;;;;;48.83;26.10;;;1.00;81.00;;;;;;5093614;28;20433;-70
2024/01/12 01:15:53;;;;;;;51.28;26.77;;;1.00;80.90;;;;;;5093120;28;20548;-70
2024/01/12 01:18:19;;;;;;;56.15;27.60;;;1.10;81.20;;;;;;5093471;28;20032;-70
2024/01/12 01:20:44;;;;;;;51.67;28.10;;;1.00;81.30;;;;;;5091815;28;20114;-70
2024/01/12 01:23:10;;;;;;;54.92;29.10;;;1.00;81.50;;;;;;5092805;28;20111;-69
2024/01/12 01:25:36;;;;;;;51.67;27.52;;;1.00;82.00;;;;;;5093222;28;20043;-69
2024/01/12 01:28:02;;;;;;;53.25;28.17;;;1.00;82.40;;;;;;5092461;28;20047;-69
2024/01/12 01:30:28;;;;;;;55.25;28.42;;;0.90;82.60;;;;;;5093170;28;20483;-71
2024/01/12 01:32:54;;;;;;;53.08;28.90;;;0.90;83.00;;;;;;5092752;28;20055;-69
2024/01/12 01:35:21;;;;;;;59.08;30.10;;;0.90;83.20;;;;;;5093160;28;20024;-70
2024/01/12 01:38:05;;;;;;;53.13;28.15;;;0.90;83.40;;;;;;5093031;28;20032;-70
2024/01/12 01:40:31;;;;;;;56.25;30.17;;;0.90;83.60;;;;;;5092981;28;20437;-70
2024/01/12 01:43:06;;;;;;;51.83;28.02;;;0.90;83.80;;;;;;5091885;28;20034;-70
2024/01/12 01:45:33;;;;;;;54.33;28.67;;;0.80;84.00;;;;;;5093062;28;20032;-71
2024/01/12 01:47:59;;;;;;;59.28;29.55;;;0.80;84.30;;;;;;5092212;28;20528;-71
2024/01/12 01:50:25;;;;;;;65.30;29.67;;;0.80;84.40;;;;;;5093090;28;20020;-70
2024/01/12 01:52:51;;;;;;;54.53;28.83;;;0.80;84.60;;;;;;5092689;28;20165;-70
2024/01/12 01:55:17;;;;;;;55.95;29.00;;;0.80;84.40;;;;;;5092907;28;20031;-70
2024/01/12 01:57:44;;;;;;;55.70;28.60;;;0.80;84.60;;;;;;5093422;28;20036;-71
2024/01/12 02:00:11;;;;;;;53.08;28.70;;;0.80;84.70;;;;;;5092255;28;20287;-71
2024/01/12 02:02:37;;;;;;;53.47;29.05;;;0.70;84.90;;;;;;5092487;28;20481;-70
2024/01/12 02:05:06;;;;;;;52.50;29.02;;;0.70;85.30;;;;;;5090493;28;20105;-70
2024/01/12 02:07:32;;;;;;;51.97;28.10;;;0.70;85.60;;;;;;5092790;28;20043;-70
2024/01/12 02:09:58;;;;;;;58.33;28.75;;;0.70;85.30;;;;;;5092247;28;20056;-70
2024/01/12 02:12:24;;;;;;;54.78;29.27;;;0.70;85.30;;;;;;5092574;28;20421;-70
2024/01/12 02:14:50;;;;;;;52.67;28.35;;;0.70;85.30;;;;;;5092405;28;20091;-70
2024/01/12 02:17:15;;;;;;;52.42;28.30;;;0.70;85.40;;;;;;5091897;28;20099;-70
2024/01/12 02:19:41;;;;;;;54.03;29.70;;;0.70;85.50;;;;;;5092250;28;20107;-70
2024/01/12 02:22:06;;;;;;;53.92;28.10;;;0.70;85.70;;;;;;5091795;28;20066;-68
2024/01/12 02:24:32;;;;;;;57.22;29.00;;;0.70;85.70;;;;;;5090800;28;20385;-70
2024/01/12 02:26:58;;;;;;;52.75;27.73;;;0.70;86.10;;;;;;5091768;28;20107;-69
2024/01/12 02:29:23;;;;;;;53.55;28.15;;;0.70;86.40;;;;;;5092466;28;20057;-70
2024/01/12 02:31:50;;;;;;;51.75;28.23;;;0.70;86.80;;;;;;5091899;28;20024;-70
2024/01/12 02:34:16;;;;;;;52.22;28.30;;;0.70;87.30;;;;;;5090878;28;20028;-70
2024/01/12 02:36:42;;;;;;;49.45;25.92;;;0.70;87.90;;;;;;5092442;28;20039;-71
2024/01/12 02:39:07;;;;;;;52.88;26.10;;;0.60;88.50;;;;;;5091865;28;20107;-70
2024/01/12 02:41:33;;;;;;;52.63;27.60;;;0.60;89.30;;;;;;5092326;28;20452;-71
2024/01/12 02:43:58;;;;;;;53.35;27.73;;;0.60;90.00;;;;;;5090055;28;20040;-71
2024/01/12 02:46:24;;;;;;;50.55;26.67;;;0.60;90.10;;;;;;5092027;28;20032;-71
2024/01/12 02:48:50;;;;;;;49.15;26.83;;;0.60;90.30;;;;;;5092144;28;20096;-70
2024/01/12 02:51:15;;;;;;;52.60;26.35;;;0.60;90.50;;;;;;5091212;28;20024;-70
2024/01/12 02:53:41;;;;;;;48.53;26.33;;;0.60;90.60;;;;;;5091852;28;20032;-69
2024/01/12 02:56:07;;;;;;;45.72;25.25;;;0.50;90.80;;;;;;5094874;28;20025;-70
2024/01/12 02:58:32;;;;;;;45.13;24.83;;;0.50;91.10;;;;;;5095824;28;20396;-70
2024/01/12 03:00:59;;;;;;;42.85;24.60;;;0.50;91.40;;;;;;5095675;28;20106;-70
2024/01/12 03:03:24;;;;;;;46.25;25.58;;;0.50;91.50;;;;;;5095565;28;20082;-70
2024/01/12 03:05:50;;;;;;;49.70;24.38;;;0.50;91.70;;;;;;5095622;28;20036;-69
2024/01/12 03:08:16;;;;;;;49.47;25.17;;;0.50;91.80;;;;;;5095436;28;20071;-70
2024/01/12 03:10:42;;;;;;;47.85;25.25;;;0.50;91.90;;;;;;5094443;28;20032;-69
2024/01/12 03:13:07;;;;;;;43.70;24.60;;;0.50;91.80;;;;;;5095021;28;20039;-70
2024/01/12 03:15:33;;;;;;;44.03;24.80;;;0.60;91.70;;;;;;5095771;28;20039;-70
2024/01/12 03:17:59;;;;;;;43.63;23.95;;;0.50;91.60;;;;;;5095153;28;20081;-69
2024/01/12 03:20:24;;;;;;;52.38;25.95;;;0.50;91.70;;;;;;5095342;28;20431;-70
2024/01/12 03:22:50;;;;;;;52.58;24.45;;;0.50;91.70;;;;;;5094687;28;20024;-68
2024/01/12 03:25:16;;;;;;;49.42;25.25;;;0.50;91.70;;;;;;5095195;28;20100;-70
2024/01/12 03:27:42;;;;;;;46.55;24.65;;;0.50;91.70;;;;;;5095724;28;20073;-70
2024/01/12 03:30:08;;;;;;;42.08;23.63;;;0.50;91.70;;;;;;5095022;28;20028;-69
2024/01/12 03:32:34;;;;;;;45.53;25.38;;;0.50;91.70;;;;;;5095357;28;20039;-70
2024/01/12 03:34:59;;;;;;;43.75;24.27;;;0.50;91.80;;;;;;5094645;28;20028;-70
2024/01/12 03:37:25;;;;;;;47.42;25.55;;;0.50;91.80;;;;;;5095037;28;20361;-70
2024/01/12 03:39:51;;;;;;;47.10;24.15;;;0.50;92.00;;;;;;5095261;28;20028;-69
2024/01/12 03:42:17;;;;;;;46.25;26.95;;;0.50;92.10;;;;;;5094743;28;20024;-70
2024/01/12 03:44:42;;;;;;;44.83;26.05;;;0.50;92.10;;;;;;5094866;28;20469;-70
2024/01/12 03:47:08;;;;;;;45.60;24.90;;;0.50;92.10;;;;;;5094813;28;20477;-70
2024/01/12 03:49:33;;;;;;;43.58;23.58;;;0.50;92.00;;;;;;5094896;28;20392;-71
2024/01/12 03:51:59;;;;;;;47.20;24.80;;;0.50;92.00;;;;;;5112632;28;20030;-75
2024/01/12 03:54:24;;;;;;;50.08;24.92;;;0.50;92.00;;;;;;5115362;28;20039;-70
2024/01/12 03:56:51;;;;;;;45.33;24.25;;;0.50;92.00;;;;;;5115439;28;20020;-70
2024/01/12 03:59:16;;;;;;;46.05;24.63;;;0.50;91.90;;;;;;5114660;28;20079;-70
2024/01/12 04:01:45;;;;;;;48.33;25.92;;;0.50;92.00;;;;;;5115165;28;20030;-70
2024/01/12 04:04:11;;;;;;;50.80;27.30;;;0.50;92.10;;;;;;5114738;28;20024;-70
2024/01/12 04:06:39;;;;;;;53.53;27.30;;;0.50;92.20;;;;;;5114784;28;20039;-70
2024/01/12 04:09:05;;;;;;;56.60;28.65;;;0.50;92.20;;;;;;5114459;28;20019;-70
2024/01/12 04:11:30;;;;;;;59.38;30.13;;;0.50;92.30;;;;;;5115135;28;20050;-70
2024/01/12 04:13:56;;;;;;;58.58;30.75;;;0.50;92.40;;;;;;5114887;28;20437;-70
2024/01/12 04:16:22;;;;;;;60.88;30.88;;;0.50;92.60;;;;;;5114424;28;20023;-70
2024/01/12 04:18:47;;;;;;;60.30;32.28;;;0.40;92.70;;;;;;5115197;28;20072;-69
2024/01/12 04:21:13;;;;;;;60.80;31.15;;;0.40;93.00;;;;;;5114386;28;20089;-69
2024/01/12 04:23:39;;;;;;;64.90;32.72;;;0.40;93.20;;;;;;5114320;28;20036;-69
2024/01/12 04:26:08;;;;;;;60.15;32.17;;;0.30;93.30;;;;;;5114172;28;20028;-70
2024/01/12 04:28:34;;;;;;;62.42;31.70;;;0.30;93.40;;;;;;5107852;28;20356;-70
2024/01/12 04:31:03;;;;;;;62.42;31.75;;;0.30;93.60;;;;;;5093996;28;20024;-70
2024/01/12 04:33:30;;;;;;;61.20;32.28;;;0.30;93.80;;;;;;5094018;28;20035;-71
2024/01/12 04:35:56;;;;;;;62.83;32.83;;;0.30;93.80;;;;;;5094236;28;20024;-70
2024/01/12 04:38:22;;;;;;;62.28;32.78;;;0.30;94.00;;;;;;5093407;28;20080;-70
2024/01/12 04:40:47;;;;;;;63.97;32.67;;;0.20;94.10;;;;;;5092547;28;20150;-70
2024/01/12 04:43:13;;;;;;;60.45;32.42;;;0.20;94.30;;;;;;5093446;28;20055;-70
2024/01/12 04:45:38;;;;;;;66.63;33.00;;;0.20;94.40;;;;;;5093872;28;20076;-71
2024/01/12 04:48:04;;;;;;;65.05;32.53;;;0.20;94.40;;;;;;5093714;28;20417;-71
2024/01/12 04:50:30;;;;;;;63.70;32.25;;;0.20;94.50;;;;;;5094055;28;20032;-69
2024/01/12 04:52:56;;;;;;;62.47;31.80;;;0.20;94.50;;;;;;5093543;28;20038;-70
2024/01/12 04:55:21;;;;;;;62.25;32.60;;;0.20;94.50;;;;;;5093469;28;20357;-70
2024/01/12 04:57:47;;;;;;;61.45;32.03;;;0.20;94.60;;;;;;5093589;28;20024;-71
2024/01/12 05:00:13;;;;;;;68.18;33.30;;;0.20;94.70;;;;;;5093575;28;20131;-70
2024/01/12 05:02:40;;;;;;;67.47;34.22;;;0.20;94.80;;;;;;5098800;28;20418;-70
2024/01/12 05:05:08;;;;;;;64.05;33.60;;;0.20;94.80;;;;;;5093232;28;20029;-70
2024/01/12 05:07:34;;;;;;;69.30;34.33;;;0.20;95.00;;;;;;5093889;28;20024;-69
2024/01/12 05:09:59;;;;;;;65.03;33.50;;;0.20;95.20;;;;;;5093675;28;20031;-71
2024/01/12 05:12:25;;;;;;;62.15;31.55;;;0.10;95.30;;;;;;5092880;28;20365;-70
2024/01/12 05:14:51;;;;;;;65.50;33.20;;;0.10;95.40;;;;;;5093571;28;20024;-69
2024/01/12 05:17:17;;;;;;;68.43;33.90;;;0.10;95.60;;;;;;5092230;28;20023;-70
2024/01/12 05:19:43;;;;;;;62.83;32.53;;;0.10;95.60;;;;;;5093611;28;20027;-69
2024/01/12 05:22:08;;;;;;;63.20;32.67;;;0.10;95.60;;;;;;5092962;28;20036;-70
2024/01/12 05:24:34;;;;;;;63.13;33.55;;;0.10;95.70;;;;;;5093186;28;20102;-69
2024/01/12 05:26:59;;;;;;;68.90;34.70;;;0.10;95.80;;;;;;5093230;28;20110;-70
2024/01/12 05:29:25;;;;;;;65.05;34.72;;;0.20;95.90;;;;;;5092838;28;20030;-70
2024/01/12 05:31:51;;;;;;;63.15;32.40;;;0.10;95.90;;;;;;5093465;28;20028;-70
2024/01/12 05:34:16;;;;;;;68.22;32.85;;;0.10;96.00;;;;;;5092775;28;20114;-70
2024/01/12 05:36:42;;;;;;;61.50;32.33;;;0.10;96.20;;;;;;5093181;28;20073;-70
2024/01/12 05:39:08;;;;;;;57.10;30.73;;;0.10;96.40;;;;;;5092603;28;20029;-75
2024/01/12 05:41:33;;;;;;;64.63;34.15;;;0.10;96.50;;;;;;5093191;28;20047;-71
2024/01/12 05:43:59;;;;;;;62.63;32.92;;;0.10;96.60;;;;;;5092643;28;20081;-69
2024/01/12 05:46:25;;;;;;;68.32;35.00;;;0.10;96.70;;;;;;5092565;28;20024;-70
2024/01/12 05:48:50;;;;;;;64.55;32.33;;;0.00;96.70;;;;;;5092435;28;20024;-70
2024/01/12 05:51:16;;;;;;;69.78;33.67;;;0.00;96.90;;;;;;5092380;28;20024;-70
2024/01/12 05:53:42;;;;;;;68.65;35.15;;;0.00;97.00;;;;;;5094395;28;20043;-71
2024/01/12 05:56:08;;;;;;;67.60;34.78;;;0.00;97.00;;;;;;5113176;28;20087;-70
2024/01/12 05:58:34;;;;;;;70.13;35.47;;;0.00;97.20;;;;;;5112921;28;20076;-69
2024/01/12 06:00:59;;;;;;;66.25;34.50;;;0.00;97.40;;;;;;5113223;28;20031;-70
2024/01/12 06:03:28;;;;;;;67.95;34.92;;;0.00;97.50;;;;;;5112386;28;20528;-70
2024/01/12 06:05:57;;;;;;;66.78;34.97;;;0.00;97.60;;;;;;5111778;28;20491;-70
2024/01/12 06:08:24;;;;;;;61.67;34.22;;;0.00;97.70;;;;;;5112266;28;20488;-70
2024/01/12 06:10:50;;;;;;;64.13;34.67;;;0.10;97.80;;;;;;5112830;28;20110;-70
2024/01/12 06:13:16;;;;;;;72.05;35.25;;;0.10;97.80;;;;;;5103183;28;20050;-71
2024/01/12 06:15:42;;;;;;;65.28;34.85;;;0.10;98.00;;;;;;5091642;28;20093;-70
2024/01/12 06:18:08;;;;;;;68.32;34.33;;;0.00;98.10;;;;;;5092535;28;20035;-70
2024/01/12 06:20:34;;;;;;;65.40;33.60;;;0.00;98.20;;;;;;5092194;28;20030;-70
2024/01/12 06:23:00;;;;;;;63.22;34.03;;;0.00;98.40;;;;;;5092104;28;20386;-69
2024/01/12 06:25:25;;;;;;;67.07;34.47;;;0.00;98.40;;;;;;5091559;28;20102;-69
2024/01/12 06:27:51;;;;;;;66.75;32.92;;;0.00;98.40;;;;;;5091814;28;20019;-70
2024/01/12 06:30:17;;;;;;;71.25;34.03;;;0.00;98.60;;;;;;5091817;28;20032;-70
2024/01/12 06:32:43;;;;;;;72.22;35.22;;;0.00;98.70;;;;;;5092261;28;20420;-69
2024/01/12 06:35:10;;;;;;;69.85;35.78;;;0.00;98.80;;;;;;5091543;28;20038;-70
2024/01/12 06:37:37;;;;;;;70.28;35.70;;;0.00;99.00;;;;;;5090984;28;20383;-69
2024/01/12 06:40:04;;;;;;;68.53;35.25;;;0.00;99.10;;;;;;5091591;28;20024;-69
2024/01/12 06:42:30;;;;;;;66.82;34.20;;;0.00;99.20;;;;;;5089730;28;20035;-71
2024/01/12 06:44:56;;;;;;;67.32;35.85;;;0.10;99.30;;;;;;5091119;28;20024;-70
2024/01/12 06:47:22;;;;;;;71.93;35.30;;;0.00;99.30;;;;;;5090922;28;20036;-70
2024/01/12 06:49:48;;;;;;;69.78;35.20;;;0.00;99.40;;;;;;5091012;28;20028;-70
2024/01/12 06:52:14;;;;;;;68.15;35.08;;;0.00;99.50;;;;;;5091253;28;20048;-71
2024/01/12 06:54:45;;;;;;;79.78;38.63;;;0.00;99.60;;;;;;5091240;28;20353;-70
2024/01/12 06:57:11;;;;;;;74.00;35.97;;;0.00;99.70;;;;;;5091796;28;20047;-70
2024/01/12 06:59:37;;;;;;;72.57;37.55;;;0.00;99.80;;;;;;5091155;28;20361;-70
2024/01/12 07:02:03;;;;;;;69.35;35.35;;;0.00;99.70;;;;;;5091686;28;20032;-71
2024/01/12 07:04:29;;;;;;;69.50;35.80;;;0.00;99.80;;;;;;5093667;28;20080;-70
2024/01/12 07:06:54;;;;;;;70.80;35.92;;;0.00;99.80;;;;;;5090431;28;20064;-70
2024/01/12 07:09:20;;;;;;;73.47;36.95;;;-0.10;99.90;;;;;;5096733;28;20031;-71
2024/01/12 07:11:46;;;;;;;73.43;36.35;;;-0.10;99.90;;;;;;5104605;28;20396;-70
2024/01/12 07:14:15;;;;;;;70.03;35.17;;;-0.10;99.90;;;;;;5100370;28;20031;-70
2024/01/12 07:16:41;;;;;;;75.65;36.38;;;-0.10;99.90;;;;;;5102127;28;20374;-70
2024/01/12 07:19:07;;;;;;;68.05;36.00;;;-0.10;99.80;;;;;;5099317;28;20024;-70
2024/01/12 07:21:33;;;;;;;67.25;34.83;;;-0.10;99.90;;;;;;5103569;28;20032;-70
2024/01/12 07:23:59;;;;;;;70.90;36.60;;;0.00;99.80;;;;;;5101363;28;20031;-70
2024/01/12 07:26:25;;;;;;;68.30;34.92;;;0.00;99.60;;;;;;5100481;28;20024;-71
2024/01/12 07:28:51;;;;;;;69.95;34.80;;;0.00;99.50;;;;;;5103375;28;20024;-70
2024/01/12 07:31:17;;;;;;;66.30;34.03;;;0.00;99.40;;;;;;5092264;28;20417;-70
2024/01/12 07:33:43;;;;;;;66.13;34.08;;;0.00;99.40;;;;;;5092114;28;20109;-70
2024/01/12 07:36:08;;;;;;;64.68;33.88;;;0.00;99.20;;;;;;5091085;28;20020;-71
2024/01/12 07:38:34;;;;;;;65.38;34.35;;;0.00;99.10;;;;;;5090579;28;20036;-70
2024/01/12 07:41:00;;;;;;;66.10;34.45;;;0.00;99.00;;;;;;5089113;28;20411;-70
2024/01/12 07:43:30;;;;;;;64.18;33.47;;;0.10;98.80;;;;;;5093991;28;20040;-70
2024/01/12 07:45:59;;;;;;;66.70;34.72;;;0.10;98.60;;;;;;5094981;28;20071;-70
2024/01/12 07:48:25;;;;;;;70.55;34.72;;;0.10;98.60;;;;;;5094125;28;20410;-69
2024/01/12 07:50:56;;;;;;;65.15;34.10;;;0.10;98.50;;;;;;5093773;28;20028;-69
2024/01/12 07:53:22;;;;;;;60.47;33.03;;;0.10;98.50;;;;;;5094408;28;20077;-70
2024/01/12 07:55:49;;;;;;;64.55;33.13;;;0.10;98.50;;;;;;5094515;28;20688;-71
2024/01/12 07:58:18;;;;;;;61.85;31.30;;;0.10;98.30;;;;;;5114374;28;20030;-70
2024/01/12 08:00:44;;;;;;;62.17;31.20;;;0.10;98.20;;;;;;5114930;28;20051;-70
2024/01/12 08:03:09;;;;;;;63.80;31.25;;;0.10;98.10;;;;;;5114983;28;20023;-70
2024/01/12 08:05:35;;;;;;;61.03;31.67;;;0.10;98.20;;;;;;5114732;28;20097;-70
2024/01/12 08:08:00;;;;;;;66.93;32.55;;;0.10;98.10;;;;;;5115251;28;20023;-70
2024/01/12 08:10:26;;;;;;;60.58;29.80;;;0.20;97.80;;;;;;5114544;28;20551;-70
2024/01/12 08:12:52;;;;;;;60.30;30.88;;;0.10;97.60;;;;;;5115266;28;20110;-70
2024/01/12 08:15:17;;;;;;;58.58;30.83;;;0.10;97.60;;;;;;5114596;28;20090;-72
2024/01/12 08:17:43;;;;;;;64.10;31.80;;;0.10;97.60;;;;;;5114815;28;20035;-70
2024/01/12 08:20:09;;;;;;;61.38;32.22;;;0.20;97.70;;;;;;5114886;28;20024;-70
2024/01/12 08:22:35;;;;;;;60.50;32.17;;;0.10;97.70;;;;;;5114537;28;20028;-70
2024/01/12 08:25:00;;;;;;;62.70;32.05;;;0.10;97.80;;;;;;5114908;28;20032;-70
2024/01/12 08:27:26;;;;;;;61.67;31.58;;;0.10;97.90;;;;;;5114638;28;20102;-70
2024/01/12 08:29:52;;;;;;;60.78;31.58;;;0.20;97.90;;;;;;5115001;28;20035;-70
2024/01/12 08:32:18;;;;;;;61.63;32.03;;;0.20;97.90;;;;;;5115042;28;20024;-70
2024/01/12 08:34:44;;;;;;;64.40;32.20;;;0.20;97.80;;;;;;5115320;28;20027;-70
2024/01/12 08:37:09;;;;;;;63.08;31.92;;;0.20;97.90;;;;;;5114627;28;20030;-70
2024/01/12 08:39:35;;;;;;;57.28;30.52;;;0.20;97.90;;;;;;5114463;28;20024;-70
2024/01/12 08:42:01;;;;;;;61.47;32.17;;;0.20;97.90;;;;;;5114836;28;20520;-70
2024/01/12 08:44:27;;;;;;;58.80;32.72;;;0.20;98.00;;;;;;5112569;28;20491;-70
2024/01/12 08:46:53;;;;;;;64.95;32.83;;;0.20;97.90;;;;;;5114540;28;20141;-70
2024/01/12 08:49:19;;;;;;;64.45;32.15;;;0.20;97.90;;;;;;5097043;28;20047;-69
2024/01/12 08:51:45;;;;;;;67.60;33.10;;;0.20;98.00;;;;;;5092259;28;20407;-70
2024/01/12 08:54:11;;;;;;;60.75;31.05;;;0.20;97.90;;;;;;5093300;28;20058;-70
2024/01/12 08:56:37;;;;;;;58.97;30.10;;;0.20;98.00;;;;;;5093449;28;20067;-70
2024/01/12 08:59:02;;;;;;;58.58;30.35;;;0.30;98.00;;;;;;5093558;28;20051;-70
2024/01/12 09:01:28;;;;;;;63.28;30.83;;;0.30;97.90;;;;;;5093178;28;20032;-70
2024/01/12 09:03:53;;;;;;;61.13;30.05;;;0.30;97.90;;;;;;5093646;28;20032;-70
2024/01/12 09:06:21;;;;;;;54.75;29.20;;;0.30;97.70;;;;;;5093973;28;20109;-69
2024/01/12 09:08:46;;;;;;;62.60;32.20;;;0.30;97.60;;;;;;5093861;28;20024;-71
2024/01/12 09:11:12;;;;;;;62.42;31.77;;;0.30;97.50;;;;;;5093721;28;20107;-70
2024/01/12 09:13:38;;;;;;;62.08;31.10;;;0.40;97.50;;;;;;5093550;28;20036;-70
2024/01/12 09:16:04;;;;;;;67.45;33.90;;;0.40;97.50;;;;;;5093715;28;20065;-69
2024/01/12 09:18:29;;;;;;;65.45;31.63;;;0.40;97.40;;;;;;5092898;28;20032;-70
2024/01/12 09:20:55;;;;;;;61.65;32.35;;;0.40;97.40;;;;;;5093352;28;20039;-70
2024/01/12 09:23:20;;;;;;;67.32;32.95;;;0.40;97.40;;;;;;5093057;28;20138;-70
2024/01/12 09:25:47;;;;;;;66.72;33.03;;;0.40;97.30;;;;;;5093026;28;20054;-70
2024/01/12 09:28:13;;;;;;;63.58;32.15;;;0.40;97.20;;;;;;5093457;28;20016;-70
2024/01/12 09:30:39;;;;;;;59.47;32.75;;;0.40;97.20;;;;;;5092878;28;20040;-70
2024/01/12 09:33:05;;;;;;;63.28;32.60;;;0.30;97.30;;;;;;5093253;28;20032;-70
2024/01/12 09:35:30;;;;;;;62.88;31.88;;;0.30;97.40;;;;;;5092791;28;20024;-69
2024/01/12 09:37:56;;;;;;;62.92;32.35;;;0.40;97.50;;;;;;5092809;28;20050;-69
2024/01/12 09:40:22;;;;;;;65.63;32.33;;;0.40;97.50;;;;;;5092856;28;20028;-71
2024/01/12 09:42:49;;;;;;;63.05;33.33;;;0.40;97.50;;;;;;5092970;28;20020;-69
2024/01/12 09:45:16;;;;;;;63.72;31.45;;;0.40;97.50;;;;;;5093054;28;20112;-69
2024/01/12 09:47:42;;;;;;;58.45;30.42;;;0.40;97.50;;;;;;5091240;28;20024;-69
2024/01/12 09:50:10;;;;;;;63.72;32.22;;;0.40;97.40;;;;;;5092941;28;20031;-69
2024/01/12 09:52:37;;;;;;;58.03;30.98;;;0.40;97.40;;;;;;5092350;28;20024;-69
2024/01/12 09:55:04;;;;;;;59.92;30.58;;;0.40;97.40;;;;;;5092682;28;20110;-69
2024/01/12 09:57:30;;;;;;;58.30;30.38;;;0.40;97.40;;;;;;5092398;28;20032;-69
2024/01/12 09:59:56;;;;;;;61.90;30.48;;;0.40;97.30;;;;;;5092069;28;20561;-69
2024/01/12 10:02:22;;;;;;;56.70;30.55;;;0.40;97.30;;;;;;5092940;28;20024;-70
2024/01/12 10:04:48;;;;;;;64.13;32.47;;;0.50;97.40;;;;;;5091792;28;20380;-70
2024/01/12 10:07:13;;;;;;;59.45;29.80;;;0.50;97.40;;;;;;5100429;28;20088;-70
2024/01/12 10:09:40;;;;;;;56.70;29.63;;;0.50;97.40;;;;;;5112190;28;20440;-70
2024/01/12 10:12:06;;;;;;;53.30;27.65;;;0.50;97.30;;;;;;5112605;28;20031;-70
2024/01/12 10:14:32;;;;;;;54.05;27.80;;;0.50;97.00;;;;;;5112899;28;20068;-70
2024/01/12 10:16:58;;;;;;;54.75;29.15;;;0.50;96.90;;;;;;5112607;28;20106;-69
2024/01/12 10:19:25;;;;;;;51.10;27.35;;;0.50;97.00;;;;;;5111417;28;20027;-69
2024/01/12 10:21:51;;;;;;;51.13;27.40;;;0.60;97.00;;;;;;5112344;28;20038;-69
2024/01/12 10:24:18;;;;;;;55.47;27.80;;;0.60;96.80;;;;;;5112380;28;20028;-69
2024/01/12 10:26:47;;;;;;;57.22;28.17;;;0.60;96.80;;;;;;5112302;28;20047;-70
2024/01/12 10:29:14;;;;;;;51.75;26.75;;;0.60;96.90;;;;;;5112905;28;20031;-69
2024/01/12 10:31:41;;;;;;;52.65;27.17;;;0.70;96.90;;;;;;5112317;28;20107;-70
2024/01/12 10:34:12;;;;;;;50.65;25.98;;;0.70;96.70;;;;;;5112624;28;20111;-69
2024/01/12 10:36:39;;;;;;;52.90;26.33;;;0.70;96.70;;;;;;5112242;28;20023;-70
2024/01/12 10:39:09;;;;;;;53.95;26.67;;;0.70;97.00;;;;;;5112530;28;20049;-70
2024/01/12 10:41:36;;;;;;;50.67;26.47;;;0.70;96.60;;;;;;5110936;28;20380;-70
2024/01/12 10:44:05;;;;;;;51.45;26.92;;;0.70;96.60;;;;;;5112069;28;20066;-69
2024/01/12 10:46:47;;;;;;;47.42;24.92;;;0.70;96.50;;;;;;5110737;28;20521;-70
2024/01/12 10:49:15;;;;;;;54.05;28.10;;;0.70;96.40;;;;;;5112416;28;20440;-70
2024/01/12 10:51:59;;;;;;;48.75;26.17;;;0.70;96.40;;;;;;5111923;28;20049;-70
2024/01/12 10:54:32;;;;;;;52.90;27.20;;;0.80;96.30;;;;;;5112262;28;20097;-70
2024/01/12 10:56:59;;;;;;;47.60;24.55;;;0.80;96.30;;;;;;5102399;28;20097;-70
2024/01/12 10:59:25;;;;;;;46.45;25.15;;;0.80;96.10;;;;;;5091612;28;20385;-70
2024/01/12 11:01:51;;;;;;;49.60;26.65;;;0.80;96.00;;;;;;5091030;28;20024;-70
2024/01/12 11:04:17;;;;;;;52.03;26.83;;;0.90;96.00;;;;;;5091633;28;20036;-70
2024/01/12 11:06:45;;;;;;;49.03;26.20;;;0.80;96.00;;;;;;5091520;28;20032;-70
2024/01/12 11:09:12;;;;;;;51.65;26.10;;;0.90;96.10;;;;;;5091759;28;20028;-70
2024/01/12 11:11:51;;;;;;;51.28;26.88;;;0.90;96.20;;;;;;5091622;28;20498;-70
2024/01/12 11:14:19;;;;;;;51.05;26.08;;;0.90;96.20;;;;;;5091426;28;20036;-70
2024/01/12 11:16:46;;;;;;;49.90;26.42;;;0.90;96.10;;;;;;5093978;28;20020;-70
2024/01/12 11:19:13;;;;;;;52.95;26.85;;;1.00;96.20;;;;;;5094207;28;20476;-70
2024/01/12 11:21:40;;;;;;;47.58;26.25;;;1.00;96.10;;;;;;5095186;28;20027;-70
2024/01/12 11:24:07;;;;;;;48.13;25.30;;;1.00;95.90;;;;;;5094959;28;20456;-69
2024/01/12 11:26:33;;;;;;;48.17;25.65;;;1.00;95.80;;;;;;5095027;28;20027;-70
2024/01/12 11:29:01;;;;;;;49.70;25.02;;;1.00;95.70;;;;;;5095420;28;20040;-70
2024/01/12 11:31:27;;;;;;;52.72;24.88;;;1.00;95.60;;;;;;5095227;28;20024;-70
2024/01/12 11:34:02;;;;;;;47.00;24.10;;;1.10;95.40;;;;;;5094761;28;20381;-70
2024/01/12 11:36:29;;;;;;;50.88;27.15;;;1.00;95.30;;;;;;5095335;28;20035;-69
2024/01/12 11:38:59;;;;;;;51.03;25.42;;;1.00;95.40;;;;;;5094633;28;20435;-70
2024/01/12 11:41:31;;;;;;;50.22;26.38;;;1.00;95.40;;;;;;5094958;28;20103;-69
2024/01/12 11:43:57;;;;;;;44.92;23.77;;;1.00;95.50;;;;;;5094707;28;20038;-70
2024/01/12 11:46:26;;;;;;;48.00;26.67;;;1.10;95.30;;;;;;5095365;28;20487;-70
2024/01/12 11:48:52;;;;;;;49.35;25.27;;;1.10;95.20;;;;;;5094596;28;20024;-69
2024/01/12 11:51:27;;;;;;;51.50;26.08;;;1.10;95.40;;;;;;5094893;28;20456;-69
2024/01/12 11:53:56;;;;;;;50.25;27.08;;;1.00;95.40;;;;;;5094756;28;20034;-71
2024/01/12 11:56:22;;;;;;;48.70;24.90;;;1.10;95.50;;;;;;5095222;28;20032;-70
2024/01/12 11:58:47;;;;;;;54.78;26.65;;;1.10;95.70;;;;;;5094215;28;20098;-70
2024/01/12 12:01:13;;;;;;;49.00;25.50;;;1.10;95.60;;;;;;5095016;28;20056;-70
2024/01/12 12:03:39;;;;;;;45.88;24.77;;;1.10;95.60;;;;;;5094513;28;20047;-70
2024/01/12 12:06:10;;;;;;;49.95;26.10;;;1.10;95.50;;;;;;5094855;28;20050;-70
2024/01/12 12:08:36;;;;;;;47.85;25.75;;;1.20;95.30;;;;;;5094549;28;20027;-70
2024/01/12 12:11:03;;;;;;;55.08;27.45;;;1.20;95.30;;;;;;5094818;28;20064;-70
2024/01/12 12:13:29;;;;;;;48.60;26.98;;;1.20;95.40;;;;;;5095570;28;20036;-70
2024/01/12 12:15:55;;;;;;;52.50;27.17;;;1.20;95.40;;;;;;5114677;28;20487;-69
2024/01/12 12:18:20;;;;;;;54.47;27.35;;;1.20;95.30;;;;;;5113716;28;20123;-69
2024/01/12 12:20:47;;;;;;;53.45;27.80;;;1.30;95.30;;;;;;5114732;28;20077;-70
2024/01/12 12:23:13;;;;;;;53.13;27.77;;;1.30;95.10;;;;;;5115023;28;20023;-70
2024/01/12 12:25:39;;;;;;;48.63;25.75;;;1.30;95.10;;;;;;5114441;28;20042;-70
2024/01/12 12:28:05;;;;;;;48.83;25.45;;;1.30;95.00;;;;;;5114680;28;20028;-69
2024/01/12 12:30:31;;;;;;;49.40;24.83;;;1.40;94.80;;;;;;5114872;28;20110;-69